Time;durP1;ratioP1;P1;durP2;ratioP2;P2;SDS_P1;SDS_P2;PMS_P1;PMS_P2;Temp;Humidity;BMP_temperature;BMP_pressure;BME280_temperature;BME280_humidity;BME280_pressure;Samples;Min_cycle;Max_cycle;Signal;HPM_P1;HPM_P2
2021/06/27 00:00:28;;;;;;;;;6.00;6.00;;;;;26.70;44.62;101256.41;5062503;28;45345;-71
2021/06/27 00:02:53;;;;;;;;;7.50;5.75;;;;;26.61;44.33;101231.75;5062836;28;46179;-75
2021/06/27 00:05:21;;;;;;;;;7.00;7.00;;;;;26.61;44.71;101250.41;5060140;28;45219;-74
2021/06/27 00:07:47;;;;;;;;;3.75;3.75;;;;;26.61;44.67;101245.91;5073155;28;45350;-71
2021/06/27 00:10:16;;;;;;;;;5.00;5.00;;;;;26.59;44.74;101228.47;5062257;28;45301;-71
2021/06/27 00:12:42;;;;;;;;;5.00;5.00;;;;;26.65;44.78;101238.31;5071243;28;47370;-72
2021/06/27 00:15:14;;;;;;;;;6.00;6.00;;;;;26.59;44.53;101237.28;5061852;28;45351;-71
2021/06/27 00:17:41;;;;;;;;;6.00;5.00;;;;;26.75;44.80;101248.63;5070444;28;45457;-72
2021/06/27 00:20:09;;;;;;;;;6.25;6.00;;;;;26.52;44.99;101215.91;5063901;28;45368;-72
2021/06/27 00:22:35;;;;;;;;;6.50;6.50;;;;;26.48;44.92;101208.53;5063727;28;46532;-72
2021/06/27 00:25:02;;;;;;;;;6.00;6.00;;;;;26.59;45.20;101226.63;5062675;28;45291;-71
2021/06/27 00:27:27;;;;;;;;;6.50;5.75;;;;;26.50;44.80;101209.13;5070489;28;45339;-72
2021/06/27 00:29:52;;;;;;;;;6.25;6.25;;;;;26.43;44.69;101211.78;5081454;27;45555;-72
2021/06/27 00:32:18;;;;;;;;;5.75;5.75;;;;;26.56;45.12;101232.34;5061339;27;45318;-74
2021/06/27 00:34:43;;;;;;;;;7.50;6.50;;;;;26.63;44.66;101240.38;5062212;28;45331;-72
2021/06/27 00:37:09;;;;;;;;;6.75;6.75;;;;;26.74;44.80;101250.47;5076787;27;45662;-73
2021/06/27 00:39:35;;;;;;;;;6.75;6.75;;;;;26.65;44.73;101240.19;5062460;28;45441;-76
2021/06/27 00:42:00;;;;;;;;;7.00;7.00;;;;;26.66;44.96;101223.13;5070126;28;48201;-71
2021/06/27 00:44:26;;;;;;;;;6.00;6.00;;;;;26.49;44.98;101192.31;5067361;28;45359;-77
2021/06/27 00:46:53;;;;;;;;;5.00;5.00;;;;;26.86;44.59;101252.50;5069363;28;45414;-72
2021/06/27 00:49:20;;;;;;;;;6.25;6.25;;;;;26.79;44.38;101231.16;5068733;28;45476;-71
2021/06/27 00:51:47;;;;;;;;;7.25;6.00;;;;;26.63;44.62;101190.50;5066996;27;45483;-71
2021/06/27 00:54:12;;;;;;;;;5.00;5.00;;;;;26.78;44.44;101210.03;5063791;27;45327;-71
2021/06/27 00:56:38;;;;;;;;;7.00;7.00;;;;;26.90;44.27;101232.41;5061797;28;45304;-73
2021/06/27 00:59:03;;;;;;;;;5.75;5.75;;;;;26.90;44.20;101224.41;5064444;28;45561;-72
2021/06/27 01:01:29;;;;;;;;;7.00;5.00;;;;;26.67;44.49;101190.91;5070146;28;45431;-72
2021/06/27 01:03:54;;;;;;;;;5.75;5.75;;;;;26.91;44.06;101212.66;5061559;28;45440;-72
2021/06/27 01:06:20;;;;;;;;;6.75;6.00;;;;;26.93;44.37;101231.19;5069046;28;45500;-72
2021/06/27 01:08:45;;;;;;;;;5.00;5.00;;;;;26.89;44.44;101225.41;5061424;28;45581;-73
2021/06/27 01:11:11;;;;;;;;;6.50;6.50;;;;;26.90;44.20;101219.06;5059690;28;46590;-73
2021/06/27 01:13:36;;;;;;;;;7.00;6.00;;;;;26.90;44.46;101212.88;5062973;28;45286;-72
2021/06/27 01:16:02;;;;;;;;;5.50;5.50;;;;;26.94;44.56;101214.94;5064255;28;45511;-72
2021/06/27 01:18:27;;;;;;;;;7.00;7.00;;;;;26.89;44.41;101204.06;5063747;28;45610;-73
2021/06/27 01:20:53;;;;;;;;;5.50;5.50;;;;;26.91;43.93;101222.53;5068287;28;45432;-72
2021/06/27 01:23:19;;;;;;;;;5.00;5.00;;;;;26.85;44.23;101198.28;5065486;28;45421;-73
2021/06/27 01:25:49;;;;;;;;;6.00;6.00;;;;;26.70;44.34;101181.69;5062484;27;45521;-75
2021/06/27 01:28:15;;;;;;;;;5.75;5.75;;;;;26.81;44.32;101197.06;5063162;28;45378;-73
2021/06/27 01:30:42;;;;;;;;;7.00;6.00;;;;;26.80;44.05;101186.59;5062012;27;45400;-72
2021/06/27 01:33:16;;;;;;;;;6.50;6.25;;;;;26.93;43.84;101201.81;5060151;27;45535;-72
2021/06/27 01:35:42;;;;;;;;;4.75;4.75;;;;;26.93;44.27;101202.59;5059608;27;45548;-72
2021/06/27 01:38:10;;;;;;;;;8.25;7.00;;;;;26.91;43.86;101199.31;5064672;28;45416;-74
2021/06/27 01:40:36;;;;;;;;;7.00;6.00;;;;;26.84;43.94;101193.16;5062063;27;45453;-74
2021/06/27 01:43:16;;;;;;;;;5.00;5.00;;;;;26.75;44.02;101181.88;5059806;28;46103;-75
2021/06/27 01:45:48;;;;;;;;;6.50;6.00;;;;;26.71;43.98;101177.97;5061538;27;45466;-74
2021/06/27 01:48:15;;;;;;;;;7.00;7.00;;;;;26.61;44.26;101159.69;5059723;27;45438;-73
2021/06/27 01:50:42;;;;;;;;;7.25;6.50;;;;;26.76;44.00;101194.19;5059548;28;45297;-74
2021/06/27 01:53:11;;;;;;;;;8.75;8.00;;;;;26.81;44.43;101212.25;5061886;27;45397;-74
2021/06/27 01:55:37;;;;;;;;;7.75;6.25;;;;;26.79;44.04;101211.66;5059746;27;45351;-73
2021/06/27 01:58:03;;;;;;;;;8.00;7.00;;;;;26.48;44.31;101163.16;5044798;28;45672;-74
2021/06/27 02:00:30;;;;;;;;;7.25;7.25;;;;;26.58;44.00;101179.59;5061216;27;45350;-74
2021/06/27 02:02:56;;;;;;;;;5.50;5.00;;;;;26.80;44.31;101206.13;5060707;27;45406;-76
2021/06/27 02:05:22;;;;;;;;;8.25;7.00;;;;;26.50;44.02;101155.78;5061067;27;45314;-74
2021/06/27 02:07:48;;;;;;;;;5.25;5.25;;;;;26.50;44.57;101163.78;5058801;27;45257;-74
2021/06/27 02:10:18;;;;;;;;;9.25;7.25;;;;;26.68;43.96;101171.19;5062326;27;46515;-74
2021/06/27 02:12:44;;;;;;;;;8.00;7.25;;;;;26.60;43.96;101166.88;5075846;28;45407;-72
2021/06/27 02:15:10;;;;;;;;;7.00;7.00;;;;;26.83;44.11;101197.69;5060605;28;45466;-78
2021/06/27 02:17:37;;;;;;;;;6.50;5.25;;;;;26.61;44.16;101157.03;5059753;28;45288;-78
2021/06/27 02:20:05;;;;;;;;;8.00;7.25;;;;;26.76;44.09;101172.00;5075339;28;47614;-78
2021/06/27 02:22:31;;;;;;;;;7.00;5.25;;;;;26.62;44.18;101140.81;5058164;28;45426;-78
2021/06/27 02:24:56;;;;;;;;;6.50;6.50;;;;;26.63;44.18;101152.31;5058518;28;45562;-78
2021/06/27 02:27:21;;;;;;;;;9.00;9.00;;;;;26.82;44.30;101181.88;5060096;28;45429;-78
2021/06/27 02:29:47;;;;;;;;;6.75;6.75;;;;;26.49;43.78;101133.59;5059039;28;45363;-78
2021/06/27 02:32:12;;;;;;;;;5.50;5.50;;;;;26.72;44.26;101163.59;5059701;28;45338;-78
2021/06/27 02:34:38;;;;;;;;;5.75;5.75;;;;;26.89;44.14;101188.03;5060218;28;45319;-78
2021/06/27 02:37:03;;;;;;;;;6.00;6.00;;;;;26.70;44.06;101161.13;5060842;28;45418;-78
2021/06/27 02:39:29;;;;;;;;;7.00;6.00;;;;;26.81;44.08;101169.53;5059713;28;45274;-78
2021/06/27 02:41:55;;;;;;;;;7.00;6.00;;;;;26.78;43.74;101172.66;5059848;28;45323;-78
2021/06/27 02:44:20;;;;;;;;;6.75;6.75;;;;;26.81;44.17;101186.38;5058493;28;45359;-78
2021/06/27 02:46:46;;;;;;;;;6.00;6.00;;;;;26.65;44.09;101154.78;5058331;28;45549;-78
2021/06/27 02:49:11;;;;;;;;;6.00;5.00;;;;;26.67;44.43;101156.22;5059596;28;45414;-78
2021/06/27 02:51:37;;;;;;;;;6.00;6.00;;;;;26.68;44.33;101146.34;5058969;28;45228;-78
2021/06/27 02:54:03;;;;;;;;;6.50;5.75;;;;;26.63;44.60;101145.13;5058435;28;45240;-78
2021/06/27 02:56:28;;;;;;;;;5.50;5.25;;;;;26.72;44.28;101144.94;5058424;28;45303;-77
2021/06/27 02:58:54;;;;;;;;;7.75;7.75;;;;;26.77;44.06;101155.81;5065007;28;45756;-78
2021/06/27 03:01:20;;;;;;;;;8.75;7.00;;;;;26.76;44.19;101146.16;5058180;28;45283;-77
2021/06/27 03:03:51;;;;;;;;;7.50;7.50;;;;;26.79;44.24;101156.41;5059524;28;45275;-77
2021/06/27 03:06:17;;;;;;;;;6.00;5.50;;;;;26.63;44.31;101120.28;5059365;28;45447;-78
2021/06/27 03:08:43;;;;;;;;;6.50;5.50;;;;;26.84;44.17;101164.63;5059373;28;46888;-78
2021/06/27 03:11:09;;;;;;;;;6.00;6.00;;;;;26.84;43.99;101167.31;5065854;28;45243;-77
2021/06/27 03:13:41;;;;;;;;;5.00;5.00;;;;;26.59;44.27;101124.41;5079912;28;45634;-77
2021/06/27 03:16:08;;;;;;;;;7.25;7.00;;;;;26.71;44.54;101135.25;5095573;27;45238;-77
2021/06/27 03:18:34;;;;;;;;;6.25;6.25;;;;;26.77;44.15;101145.13;5079688;27;46440;-77
2021/06/27 03:21:00;;;;;;;;;5.00;5.00;;;;;26.57;44.77;101119.25;5079761;28;45250;-77
2021/06/27 03:23:26;;;;;;;;;4.75;4.75;;;;;26.75;44.22;101147.19;5079673;28;45502;-78
2021/06/27 03:25:53;;;;;;;;;5.50;5.50;;;;;26.70;44.13;101133.63;5079491;28;46084;-78
2021/06/27 03:28:19;;;;;;;;;6.00;5.00;;;;;26.81;44.57;101143.69;5079398;28;46470;-78
2021/06/27 03:30:45;;;;;;;;;5.75;5.75;;;;;26.60;44.51;101115.34;5079554;28;45251;-78
2021/06/27 03:33:10;;;;;;;;;6.75;6.50;;;;;26.52;44.44;101095.84;5079628;28;45341;-78
2021/06/27 03:35:36;;;;;;;;;5.00;4.25;;;;;26.76;43.72;101131.97;5079682;28;45216;-79
2021/06/27 03:40:41;;;;;;;;;5.00;5.00;;;;;26.83;44.40;101138.13;5059185;28;45213;-78
2021/06/27 03:43:06;;;;;;;;;6.25;5.00;;;;;26.55;44.19;101091.94;5059389;28;46645;-79
2021/06/27 03:45:32;;;;;;;;;7.50;7.50;;;;;26.63;44.46;101104.25;5061042;28;45429;-78
2021/06/27 03:47:57;;;;;;;;;5.25;5.25;;;;;26.71;44.25;101114.75;5062197;28;46561;-79
2021/06/27 03:50:22;;;;;;;;;6.25;5.50;;;;;26.73;44.67;101112.69;5062474;28;45402;-79
2021/06/27 03:52:48;;;;;;;;;6.00;6.00;;;;;26.61;44.17;101088.47;5061946;28;45458;-78
2021/06/27 03:55:16;;;;;;;;;6.25;5.75;;;;;26.75;43.97;101107.16;5062410;28;45339;-78
2021/06/27 03:57:42;;;;;;;;;5.25;5.25;;;;;26.74;44.28;101106.31;5065976;28;46628;-77
2021/06/27 04:00:09;;;;;;;;;5.75;5.75;;;;;26.76;44.43;101111.44;5062322;28;45216;-78
2021/06/27 04:02:34;;;;;;;;;6.00;6.00;;;;;26.73;44.58;101103.84;5062444;28;45251;-78
2021/06/27 04:05:00;;;;;;;;;5.50;5.50;;;;;26.49;44.01;101060.78;5060254;28;45722;-78
2021/06/27 04:07:25;;;;;;;;;6.25;5.00;;;;;26.49;44.31;101058.91;5061718;28;45374;-78
2021/06/27 04:09:51;;;;;;;;;6.25;6.00;;;;;26.71;44.17;101090.72;5062440;28;45385;-78
2021/06/27 04:12:16;;;;;;;;;6.50;6.25;;;;;26.55;44.13;101069.78;5076681;28;45270;-78
2021/06/27 04:14:42;;;;;;;;;5.00;5.00;;;;;26.74;44.32;101098.31;5081171;28;45583;-78
2021/06/27 04:17:08;;;;;;;;;5.75;5.75;;;;;26.52;44.30;101066.50;5082184;28;45339;-78
2021/06/27 04:19:34;;;;;;;;;7.25;7.25;;;;;26.68;44.15;101098.31;5081291;28;45433;-78
2021/06/27 04:21:59;;;;;;;;;4.75;4.75;;;;;26.28;44.36;101022.56;5082196;28;45435;-78
2021/06/27 04:24:25;;;;;;;;;6.00;5.50;;;;;26.73;44.68;101111.84;5082565;28;45339;-78
2021/06/27 04:26:50;;;;;;;;;7.00;7.00;;;;;26.56;44.53;101071.44;5080872;27;48326;-78
2021/06/27 04:29:16;;;;;;;;;7.00;6.00;;;;;26.56;44.40;101093.59;5097785;27;45266;-78
2021/06/27 04:31:43;;;;;;;;;6.00;4.50;;;;;26.79;44.29;101108.38;5082501;28;45272;-78
2021/06/27 04:34:10;;;;;;;;;5.00;5.00;;;;;26.59;44.31;101071.03;5082036;27;45277;-78
2021/06/27 04:36:35;;;;;;;;;5.25;5.25;;;;;26.59;44.91;101077.19;5068668;28;46477;-78
2021/06/27 04:39:01;;;;;;;;;6.75;6.75;;;;;26.70;44.39;101098.94;5061742;28;45311;-78
2021/06/27 04:41:26;;;;;;;;;6.25;6.25;;;;;26.69;44.12;101107.97;5061753;28;45452;-78
2021/06/27 04:43:52;;;;;;;;;5.25;5.25;;;;;26.75;44.30;101109.81;5061540;28;45260;-78
2021/06/27 04:46:18;;;;;;;;;5.25;4.75;;;;;26.65;44.23;101088.06;5060221;28;46793;-78
2021/06/27 04:48:43;;;;;;;;;6.00;4.00;;;;;26.73;43.96;101115.34;5077159;28;45342;-78
2021/06/27 04:51:09;;;;;;;;;5.00;5.00;;;;;26.53;44.77;101096.69;5061593;28;45292;-78
2021/06/27 04:53:34;;;;;;;;;6.00;6.00;;;;;26.62;44.67;101107.97;5078895;28;45466;-78
2021/06/27 04:56:00;;;;;;;;;5.75;5.75;;;;;26.59;44.27;101095.03;5081334;27;45929;-78
2021/06/27 04:58:26;;;;;;;;;6.00;6.00;;;;;26.62;44.29;101105.31;5072773;28;45211;-77
2021/06/27 05:00:52;;;;;;;;;5.00;5.00;;;;;26.51;44.86;101093.41;5067500;27;45233;-78
2021/06/27 05:03:17;;;;;;;;;7.25;7.25;;;;;26.76;44.81;101132.81;5081139;28;45601;-78
2021/06/27 05:05:43;;;;;;;;;10.00;7.25;;;;;26.60;44.24;101102.81;5080311;28;45302;-78
2021/06/27 05:08:08;;;;;;;;;5.00;5.00;;;;;26.62;44.17;101106.09;5081299;28;45247;-78
2021/06/27 05:10:34;;;;;;;;;5.50;5.50;;;;;26.46;44.61;101087.84;5081598;28;45246;-78
2021/06/27 05:12:59;;;;;;;;;7.25;7.25;;;;;26.65;44.79;101112.09;5080226;28;45513;-78
2021/06/27 05:15:25;;;;;;;;;4.25;4.25;;;;;26.65;44.37;101112.88;5079966;28;47459;-78
2021/06/27 05:17:50;;;;;;;;;6.00;6.00;;;;;26.56;44.49;101106.94;5081468;28;45405;-77
2021/06/27 05:20:16;;;;;;;;;6.00;4.50;;;;;26.59;44.60;101114.56;5080275;28;45433;-78
2021/06/27 05:22:41;;;;;;;;;5.00;5.00;;;;;26.50;44.37;101107.75;5081192;28;45420;-78
2021/06/27 05:25:07;;;;;;;;;6.50;6.50;;;;;26.56;44.39;101114.94;5081160;28;46153;-78
2021/06/27 05:27:33;;;;;;;;;5.50;5.00;;;;;26.66;44.49;101121.72;5081385;28;45287;-78
2021/06/27 05:29:58;;;;;;;;;4.00;4.00;;;;;26.66;44.39;101127.88;5081317;28;45285;-78
2021/06/27 05:32:24;;;;;;;;;4.50;4.50;;;;;26.56;44.48;101111.47;5081227;28;45326;-78
2021/06/27 05:34:49;;;;;;;;;6.00;5.50;;;;;26.39;44.28;101075.28;5080754;28;45850;-78
2021/06/27 05:37:15;;;;;;;;;8.00;7.00;;;;;26.67;44.63;101126.03;5071983;28;45721;-78
2021/06/27 05:39:40;;;;;;;;;5.00;5.00;;;;;26.39;44.13;101066.47;5061076;28;45201;-78
2021/06/27 05:42:06;;;;;;;;;4.00;4.00;;;;;26.61;44.37;101093.81;5061134;28;45200;-77
2021/06/27 05:44:31;;;;;;;;;4.25;4.25;;;;;26.65;44.48;101104.06;5060547;28;45666;-79
2021/06/27 05:46:57;;;;;;;;;6.00;6.00;;;;;26.62;44.20;101103.44;5060939;28;45203;-78
2021/06/27 05:49:22;;;;;;;;;6.00;6.00;;;;;26.64;44.02;101103.25;5060765;28;45349;-78
2021/06/27 05:51:48;;;;;;;;;5.50;5.00;;;;;26.73;44.29;101106.50;5060536;28;45232;-78
2021/06/27 05:54:13;;;;;;;;;6.25;6.25;;;;;26.50;44.22;101068.56;5059167;28;47449;-77
2021/06/27 05:56:38;;;;;;;;;6.50;5.50;;;;;26.77;44.51;101112.28;5073436;28;45239;-78
2021/06/27 05:59:05;;;;;;;;;5.25;5.25;;;;;26.66;44.25;101095.03;5066583;28;45295;-78
2021/06/27 06:01:31;;;;;;;;;7.75;6.00;;;;;26.57;44.46;101073.88;5060456;28;45361;-78
2021/06/27 06:03:56;;;;;;;;;5.25;5.25;;;;;26.37;44.16;101032.00;5060472;28;46191;-78
2021/06/27 06:06:22;;;;;;;;;6.00;6.00;;;;;26.68;44.00;101080.44;5059031;28;45219;-78
2021/06/27 06:08:47;;;;;;;;;6.50;6.50;;;;;26.70;44.45;101081.06;5060466;28;45364;-78
2021/06/27 06:11:15;;;;;;;;;4.00;4.00;;;;;26.72;44.14;101080.88;5065951;28;45288;-78
2021/06/27 06:13:42;;;;;;;;;7.25;6.75;;;;;26.65;44.25;101072.84;5080440;28;46248;-78
2021/06/27 06:16:08;;;;;;;;;6.00;6.00;;;;;26.52;44.33;101041.66;5080264;28;45419;-78
2021/06/27 06:18:34;;;;;;;;;6.75;5.50;;;;;26.69;44.46;101071.44;5080413;28;45247;-78
2021/06/27 06:21:01;;;;;;;;;4.00;4.00;;;;;26.79;43.88;101103.03;5080314;27;45415;-77
2021/06/27 06:23:27;;;;;;;;;5.00;5.00;;;;;26.75;44.46;101101.81;5096139;27;45548;-78
2021/06/27 06:25:54;;;;;;;;;4.00;4.00;;;;;26.55;44.65;101072.44;5096021;27;45891;-78
2021/06/27 06:28:20;;;;;;;;;7.00;6.00;;;;;26.53;44.26;101064.66;5080199;28;45385;-78
2021/06/27 06:30:45;;;;;;;;;5.00;5.00;;;;;26.63;44.44;101085.59;5080497;27;45223;-77
2021/06/27 06:33:11;;;;;;;;;6.25;5.75;;;;;26.73;44.60;101096.66;5079226;28;45933;-78
2021/06/27 06:35:42;;;;;;;;;5.75;4.50;;;;;26.47;44.49;101060.13;5079037;28;45308;-78
2021/06/27 06:38:08;;;;;;;;;6.00;5.00;;;;;26.75;44.57;101104.50;5065017;28;45385;-78
2021/06/27 06:40:36;;;;;;;;;4.50;4.50;;;;;26.57;44.24;101073.09;5058587;28;45521;-78
2021/06/27 06:43:02;;;;;;;;;6.00;6.00;;;;;26.83;44.36;101128.28;5058536;28;47258;-79
2021/06/27 06:45:30;;;;;;;;;6.25;6.25;;;;;26.83;44.44;101130.13;5060687;28;45166;-78
2021/06/27 06:47:55;;;;;;;;;5.25;4.50;;;;;26.68;44.60;101103.66;5060862;28;45501;-78
2021/06/27 06:50:22;;;;;;;;;5.25;5.25;;;;;26.46;44.62;101071.84;5058501;28;45327;-79
2021/06/27 06:52:47;;;;;;;;;6.00;6.00;;;;;26.65;44.61;101104.88;5059714;28;45400;-79
2021/06/27 06:55:13;;;;;;;;;6.25;6.25;;;;;26.61;44.89;101093.81;5067834;28;45317;-78
2021/06/27 06:57:39;;;;;;;;;4.25;4.25;;;;;26.44;44.36;101058.69;5069272;28;45443;-78
2021/06/27 07:00:07;;;;;;;;;6.75;5.75;;;;;26.69;44.62;101099.97;5059795;28;45529;-78
2021/06/27 07:02:32;;;;;;;;;4.25;4.00;;;;;26.61;44.50;101084.97;5059396;28;46398;-78
2021/06/27 07:04:58;;;;;;;;;4.75;4.75;;;;;26.43;44.33;101069.56;5058147;28;45235;-78
2021/06/27 07:07:23;;;;;;;;;5.25;5.25;;;;;26.73;44.73;101114.53;5058193;28;45376;-78
2021/06/27 07:09:48;;;;;;;;;6.00;6.00;;;;;26.58;44.39;101090.72;5059525;28;45150;-78
2021/06/27 07:12:14;;;;;;;;;5.00;5.00;;;;;26.72;44.44;101119.06;5075049;28;46189;-78
2021/06/27 07:14:40;;;;;;;;;7.00;6.75;;;;;26.55;44.34;101083.13;5079896;28;45402;-78
2021/06/27 07:17:05;;;;;;;;;7.75;7.75;;;;;26.35;44.59;101044.72;5078111;28;46813;-78
2021/06/27 07:19:31;;;;;;;;;7.00;5.50;;;;;26.44;44.49;101064.03;5084932;28;45337;-78
2021/06/27 07:21:56;;;;;;;;;5.50;5.50;;;;;26.44;44.71;101065.91;5081424;27;47203;-78
2021/06/27 07:24:22;;;;;;;;;5.00;5.00;;;;;26.72;44.51;101102.22;5083069;28;45283;-78
2021/06/27 07:26:48;;;;;;;;;5.00;5.00;;;;;26.71;44.56;101095.22;5071314;28;45881;-78
2021/06/27 07:29:13;;;;;;;;;5.75;5.75;;;;;26.59;44.27;101085.19;5062930;28;45508;-78
2021/06/27 07:31:39;;;;;;;;;6.50;6.50;;;;;26.63;44.64;101083.75;5062694;28;45394;-78
2021/06/27 07:34:04;;;;;;;;;6.00;5.00;;;;;26.40;44.62;101044.94;5063863;28;45404;-77
2021/06/27 07:36:30;;;;;;;;;5.50;5.00;;;;;26.58;45.03;101064.88;5061779;28;45533;-77
2021/06/27 07:38:55;;;;;;;;;4.25;4.25;;;;;26.56;44.31;101068.75;5063175;28;45222;-77
2021/06/27 07:41:21;;;;;;;;;6.25;5.75;;;;;26.40;44.22;101047.59;5062723;28;46073;-77
2021/06/27 07:43:48;;;;;;;;;5.00;5.00;;;;;26.73;44.52;101093.16;5062709;28;45181;-77
2021/06/27 07:46:14;;;;;;;;;5.25;5.25;;;;;26.63;44.46;101083.75;5062143;28;45308;-77
2021/06/27 07:48:40;;;;;;;;;4.00;2.50;;;;;26.57;44.66;101071.22;5061262;28;45517;-78
2021/06/27 07:51:05;;;;;;;;;4.25;4.25;;;;;26.58;44.49;101067.53;5062175;28;45490;-77
2021/06/27 07:53:30;;;;;;;;;7.75;7.75;;;;;26.72;44.51;101089.72;5062569;28;45318;-78
2021/06/27 07:55:56;;;;;;;;;5.25;5.00;;;;;26.71;44.19;101090.72;5062614;28;45575;-77
2021/06/27 07:58:45;;;;;;;;;5.25;5.25;;;;;26.80;44.40;101102.03;5085991;27;45505;-77
2021/06/27 08:01:10;;;;;;;;;4.50;4.25;;;;;26.59;44.68;101071.84;5060321;28;47000;-78
2021/06/27 08:03:36;;;;;;;;;5.75;5.25;;;;;26.65;44.30;101075.53;5080773;28;45307;-78
2021/06/27 08:06:02;;;;;;;;;6.00;5.00;;;;;26.66;44.71;101076.34;5082423;28;45294;-78
2021/06/27 08:08:27;;;;;;;;;7.00;5.25;;;;;26.74;44.53;101087.66;5080099;28;45717;-78
2021/06/27 08:10:52;;;;;;;;;5.50;5.50;;;;;26.62;44.35;101074.09;5082373;28;45726;-77
2021/06/27 08:13:18;;;;;;;;;6.50;6.50;;;;;26.44;44.50;101045.34;5082350;28;45173;-78
2021/06/27 08:15:43;;;;;;;;;6.00;6.00;;;;;26.63;44.15;101075.75;5082586;28;45439;-78
2021/06/27 08:18:09;;;;;;;;;4.00;4.00;;;;;26.65;44.71;101074.72;5082529;28;45488;-79
2021/06/27 08:20:35;;;;;;;;;4.50;4.50;;;;;26.58;44.81;101059.53;5082349;28;45562;-78
2021/06/27 08:23:00;;;;;;;;;4.25;3.25;;;;;26.70;44.74;101073.06;5082042;28;45402;-78
2021/06/27 08:25:26;;;;;;;;;5.25;5.00;;;;;26.77;44.49;101090.94;5082478;27;45440;-77
2021/06/27 08:27:51;;;;;;;;;3.50;3.50;;;;;26.46;44.90;101050.50;5081699;28;45267;-78
2021/06/27 08:30:18;;;;;;;;;6.00;6.00;;;;;26.55;44.78;101067.94;5081726;28;45427;-78
2021/06/27 08:32:45;;;;;;;;;4.25;4.25;;;;;26.67;44.94;101083.34;5082263;28;45411;-78
2021/06/27 08:35:11;;;;;;;;;5.00;5.00;;;;;26.79;44.91;101099.53;5082227;28;45270;-78
2021/06/27 08:37:37;;;;;;;;;5.00;5.00;;;;;26.71;44.61;101096.06;5071010;28;45544;-78
2021/06/27 08:40:03;;;;;;;;;5.75;5.75;;;;;26.77;44.71;101099.75;5061676;28;45434;-78
2021/06/27 08:42:29;;;;;;;;;5.00;5.00;;;;;26.61;44.23;101074.31;5061731;28;45146;-78
2021/06/27 08:44:55;;;;;;;;;7.00;6.00;;;;;26.50;44.73;101062.41;5078217;28;45357;-78
2021/06/27 08:47:22;;;;;;;;;6.00;6.00;;;;;26.76;44.56;101106.13;5081595;28;45326;-78
2021/06/27 08:49:48;;;;;;;;;5.75;5.75;;;;;26.65;44.66;101088.88;5081216;28;45692;-78
2021/06/27 08:52:20;;;;;;;;;4.75;4.75;;;;;26.75;44.67;101096.47;5067187;27;45359;-78
2021/06/27 08:54:48;;;;;;;;;6.00;6.00;;;;;26.49;44.67;101058.91;5060272;27;45414;-78
2021/06/27 08:57:15;;;;;;;;;6.75;6.75;;;;;26.44;44.72;101055.22;5064740;27;45482;-78
2021/06/27 08:59:41;;;;;;;;;5.75;5.00;;;;;26.66;44.73;101082.50;5062069;27;45237;-78
2021/06/27 09:02:08;;;;;;;;;6.50;6.50;;;;;26.70;44.83;101082.94;5061513;28;45172;-78
2021/06/27 09:04:38;;;;;;;;;4.75;4.75;;;;;26.67;44.62;101089.50;5061566;28;45224;-78
2021/06/27 09:07:29;;;;;;;;;5.25;5.00;;;;;26.77;44.70;101099.75;5075266;28;45532;-78
2021/06/27 09:09:56;;;;;;;;;5.25;5.25;;;;;26.61;44.52;101077.81;5076691;28;48427;-78
2021/06/27 09:12:21;;;;;;;;;4.00;4.00;;;;;26.57;44.52;101073.88;5077603;28;45400;-78
2021/06/27 09:14:47;;;;;;;;;5.75;5.75;;;;;26.36;44.69;101033.03;5081586;28;45295;-77
2021/06/27 09:17:22;;;;;;;;;4.75;4.75;;;;;26.78;44.62;101095.25;5081026;28;45627;-78
2021/06/27 09:20:07;;;;;;;;;5.00;5.00;;;;;26.44;44.74;101045.34;5080088;28;48073;-78
2021/06/27 09:22:37;;;;;;;;;6.00;5.75;;;;;26.46;44.56;101055.84;5081337;28;45318;-78
2021/06/27 09:25:14;;;;;;;;;5.00;5.00;;;;;26.80;44.49;101098.53;5097443;27;45203;-78
2021/06/27 09:27:39;;;;;;;;;3.75;3.75;;;;;26.70;44.62;101086.41;5080227;28;45552;-78
2021/06/27 09:30:22;;;;;;;;;6.25;6.00;;;;;26.56;44.25;101066.94;5081008;28;45343;-78
2021/06/27 09:33:25;;;;;;;;;4.50;4.00;;;;;26.81;44.52;101097.47;5080042;27;45320;-78
2021/06/27 09:35:51;;;;;;;;;4.25;4.25;;;;;26.80;44.93;101104.69;5060059;28;45352;-78
2021/06/27 09:38:20;;;;;;;;;4.00;4.00;;;;;26.75;44.63;101101.81;5061778;28;45223;-78
2021/06/27 09:40:46;;;;;;;;;4.00;4.00;;;;;26.45;44.55;101046.19;5060575;28;45498;-78
2021/06/27 09:43:12;;;;;;;;;5.25;5.25;;;;;26.52;44.54;101057.66;5060219;28;45307;-77
2021/06/27 09:45:56;;;;;;;;;4.25;4.25;;;;;26.67;44.55;101080.66;5060077;28;45335;-78
2021/06/27 09:48:22;;;;;;;;;4.25;4.25;;;;;26.35;44.39;101034.06;5060486;28;45479;-78
2021/06/27 09:50:48;;;;;;;;;6.00;5.00;;;;;26.61;44.67;101079.63;5059115;28;45400;-77
2021/06/27 09:53:37;;;;;;;;;5.25;5.25;;;;;26.44;44.64;101056.03;5060523;28;45305;-78
2021/06/27 09:56:05;;;;;;;;;5.00;5.00;;;;;26.60;44.32;101086.81;5060683;28;45298;-78
2021/06/27 09:58:31;;;;;;;;;5.00;5.00;;;;;26.60;44.66;101086.81;5064884;28;45494;-78
2021/06/27 10:00:57;;;;;;;;;5.00;5.00;;;;;26.76;45.42;101116.78;5059093;28;45351;-78
2021/06/27 10:03:26;;;;;;;;;5.00;5.00;;;;;26.44;44.79;101064.03;5076142;28;45440;-78
2021/06/27 10:06:02;;;;;;;;;4.50;4.50;;;;;26.56;45.16;101090.09;5060254;28;45441;-78
2021/06/27 10:08:29;;;;;;;;;4.50;4.50;;;;;26.70;44.56;101118.44;5060535;28;45346;-78
2021/06/27 10:11:16;;;;;;;;;5.25;5.25;;;;;26.40;44.86;101076.94;5064740;28;46233;-78
2021/06/27 10:13:52;;;;;;;;;7.75;7.00;;;;;26.75;44.45;101125.84;5080394;28;45259;-78
2021/06/27 10:16:29;;;;;;;;;6.00;5.00;;;;;26.75;44.89;101133.84;5081324;27;45347;-78
2021/06/27 10:18:56;;;;;;;;;5.25;3.75;;;;;26.54;44.62;101101.00;5060219;28;45514;-78
2021/06/27 10:21:22;;;;;;;;;6.25;6.25;;;;;26.74;44.51;101140.19;5058512;28;46576;-78
2021/06/27 10:23:48;;;;;;;;;4.50;4.50;;;;;26.62;44.78;101126.66;5067977;28;45534;-78
2021/06/27 10:26:15;;;;;;;;;3.00;3.00;;;;;26.50;44.67;101105.09;5059107;28;45344;-78
2021/06/27 10:28:41;;;;;;;;;4.00;4.00;;;;;26.71;44.19;101137.94;5059778;28;45445;-77
2021/06/27 10:31:06;;;;;;;;;4.25;4.25;;;;;26.66;44.73;101133.22;5059937;28;45414;-78
2021/06/27 10:33:32;;;;;;;;;4.50;4.50;;;;;26.64;44.89;101119.25;5058799;28;45675;-78
2021/06/27 10:36:00;;;;;;;;;5.75;5.00;;;;;26.58;44.91;101115.56;5059978;28;45489;-78
2021/06/27 10:38:29;;;;;;;;;4.50;4.25;;;;;26.50;44.55;101110.41;5059329;28;45380;-78
2021/06/27 10:40:57;;;;;;;;;6.25;6.00;;;;;26.72;44.60;101139.59;5059900;28;46360;-78
2021/06/27 10:43:23;;;;;;;;;4.00;3.50;;;;;26.70;44.91;101144.31;5059718;28;45463;-78
2021/06/27 10:45:49;;;;;;;;;7.50;7.50;;;;;26.79;44.60;101160.94;5059956;28;45449;-78
2021/06/27 10:48:32;;;;;;;;;6.00;5.00;;;;;26.80;44.57;101155.41;5058554;28;46273;-78
2021/06/27 10:51:21;;;;;;;;;3.75;3.75;;;;;26.68;44.26;101138.34;5059450;28;47326;-78
2021/06/27 10:54:08;;;;;;;;;5.00;4.75;;;;;26.80;44.34;101151.91;5063432;28;45178;-73
2021/06/27 10:56:50;;;;;;;;;6.25;6.25;;;;;26.51;44.25;101112.06;5082485;28;45505;-70
2021/06/27 10:59:54;;;;;;;;;5.25;5.25;;;;;26.80;44.53;101160.75;5077979;28;45518;-75
2021/06/27 11:02:26;;;;;;;;;6.00;6.00;;;;;26.68;44.85;101139.16;5048822;28;47008;-74
2021/06/27 11:04:54;;;;;;;;;6.00;6.00;;;;;26.75;44.49;101152.53;5033640;28;45364;-76
2021/06/27 11:07:32;;;;;;;;;4.25;4.25;;;;;26.82;44.55;101161.34;5056025;27;45659;-78
2021/06/27 11:10:21;;;;;;;;;6.75;6.75;;;;;26.83;44.69;101168.31;5071143;28;45445;-78
2021/06/27 11:13:01;;;;;;;;;5.25;5.00;;;;;26.80;44.77;101167.91;5069993;27;46914;-77
2021/06/27 11:15:30;;;;;;;;;6.00;5.00;;;;;26.74;44.75;101156.22;5062637;27;45612;-77
2021/06/27 11:18:04;;;;;;;;;10.50;6.00;;;;;26.72;44.79;101156.44;5066810;27;45481;-78
2021/06/27 11:20:47;;;;;;;;;4.25;4.25;;;;;26.72;44.95;101153.75;5069823;27;45351;-78
2021/06/27 11:23:12;;;;;;;;;5.00;5.00;;;;;26.58;44.79;101133.41;5070590;27;47202;-78
2021/06/27 11:25:38;;;;;;;;;7.00;6.00;;;;;26.84;44.90;101167.31;5076720;27;45239;-79
2021/06/27 11:28:22;;;;;;;;;5.00;5.00;;;;;26.85;44.96;101174.25;5068069;27;45286;-78